sensor_id;sensor_type;location;lat;lon;timestamp;P1;durP1;ratioP1;P2;durP2;ratioP2
20945;SDS011;10632;51.276;7.116;2023-10-31T00:02:13;3.95;;;1.30;;
20945;SDS011;10632;51.276;7.116;2023-10-31T00:04:40;2.78;;;1.40;;
20945;SDS011;10632;51.276;7.116;2023-10-31T00:07:07;2.60;;;1.20;;
20945;SDS011;10632;51.276;7.116;2023-10-31T00:09:35;2.55;;;0.90;;
20945;SDS011;10632;51.276;7.116;2023-10-31T00:12:04;4.45;;;1.27;;
20945;SDS011;10632;51.276;7.116;2023-10-31T00:14:32;3.65;;;1.40;;
20945;SDS011;10632;51.276;7.116;2023-10-31T00:16:59;2.63;;;1.20;;
20945;SDS011;10632;51.276;7.116;2023-10-31T00:19:26;3.10;;;1.30;;
20945;SDS011;10632;51.276;7.116;2023-10-31T00:21:53;2.45;;;1.13;;
20945;SDS011;10632;51.276;7.116;2023-10-31T00:24:20;2.13;;;1.05;;
20945;SDS011;10632;51.276;7.116;2023-10-31T00:26:48;2.95;;;1.30;;
20945;SDS011;10632;51.276;7.116;2023-10-31T00:29:15;2.50;;;1.13;;
20945;SDS011;10632;51.276;7.116;2023-10-31T00:31:42;2.03;;;1.13;;
20945;SDS011;10632;51.276;7.116;2023-10-31T00:34:09;2.53;;;1.10;;
20945;SDS011;10632;51.276;7.116;2023-10-31T00:36:36;2.80;;;1.20;;
20945;SDS011;10632;51.276;7.116;2023-10-31T00:39:03;3.70;;;1.55;;
20945;SDS011;10632;51.276;7.116;2023-10-31T00:41:30;2.15;;;0.93;;
20945;SDS011;10632;51.276;7.116;2023-10-31T00:43:59;4.03;;;1.20;;
20945;SDS011;10632;51.276;7.116;2023-10-31T00:46:25;4.22;;;1.65;;
20945;SDS011;10632;51.276;7.116;2023-10-31T00:48:52;3.08;;;1.40;;
20945;SDS011;10632;51.276;7.116;2023-10-31T00:51:20;4.13;;;1.80;;
20945;SDS011;10632;51.276;7.116;2023-10-31T00:53:46;4.13;;;1.70;;
20945;SDS011;10632;51.276;7.116;2023-10-31T00:56:13;3.63;;;1.45;;
20945;SDS011;10632;51.276;7.116;2023-10-31T00:58:40;3.72;;;1.65;;
20945;SDS011;10632;51.276;7.116;2023-10-31T01:01:08;3.13;;;1.40;;
20945;SDS011;10632;51.276;7.116;2023-10-31T01:03:35;3.30;;;1.40;;
20945;SDS011;10632;51.276;7.116;2023-10-31T01:06:03;3.55;;;1.48;;
20945;SDS011;10632;51.276;7.116;2023-10-31T01:08:30;3.67;;;1.40;;
20945;SDS011;10632;51.276;7.116;2023-10-31T01:10:57;3.30;;;1.30;;
20945;SDS011;10632;51.276;7.116;2023-10-31T01:13:24;3.75;;;1.50;;
20945;SDS011;10632;51.276;7.116;2023-10-31T01:15:51;3.45;;;1.33;;
20945;SDS011;10632;51.276;7.116;2023-10-31T01:18:19;3.42;;;1.58;;
20945;SDS011;10632;51.276;7.116;2023-10-31T01:20:46;3.15;;;1.30;;
20945;SDS011;10632;51.276;7.116;2023-10-31T01:23:13;3.78;;;1.70;;
20945;SDS011;10632;51.276;7.116;2023-10-31T01:25:40;4.18;;;1.73;;
20945;SDS011;10632;51.276;7.116;2023-10-31T01:28:07;2.95;;;1.35;;
20945;SDS011;10632;51.276;7.116;2023-10-31T01:30:34;3.95;;;1.30;;
20945;SDS011;10632;51.276;7.116;2023-10-31T01:33:01;3.17;;;1.10;;
20945;SDS011;10632;51.276;7.116;2023-10-31T01:35:29;2.85;;;1.25;;
20945;SDS011;10632;51.276;7.116;2023-10-31T01:37:56;1.77;;;1.00;;
20945;SDS011;10632;51.276;7.116;2023-10-31T01:40:23;3.20;;;1.23;;
20945;SDS011;10632;51.276;7.116;2023-10-31T01:42:50;2.03;;;1.08;;
20945;SDS011;10632;51.276;7.116;2023-10-31T01:45:17;3.20;;;1.20;;
20945;SDS011;10632;51.276;7.116;2023-10-31T01:47:44;1.40;;;0.90;;
20945;SDS011;10632;51.276;7.116;2023-10-31T01:50:14;3.55;;;1.30;;
20945;SDS011;10632;51.276;7.116;2023-10-31T01:52:44;5.55;;;1.23;;
20945;SDS011;10632;51.276;7.116;2023-10-31T01:55:12;3.30;;;1.27;;
20945;SDS011;10632;51.276;7.116;2023-10-31T01:57:39;3.42;;;1.23;;
20945;SDS011;10632;51.276;7.116;2023-10-31T02:00:07;3.05;;;1.23;;
20945;SDS011;10632;51.276;7.116;2023-10-31T02:02:34;1.80;;;0.70;;
20945;SDS011;10632;51.276;7.116;2023-10-31T02:05:04;4.30;;;1.40;;
20945;SDS011;10632;51.276;7.116;2023-10-31T02:07:31;3.08;;;1.20;;
20945;SDS011;10632;51.276;7.116;2023-10-31T02:09:59;2.78;;;1.30;;
20945;SDS011;10632;51.276;7.116;2023-10-31T02:12:33;3.05;;;1.33;;
20945;SDS011;10632;51.276;7.116;2023-10-31T02:15:01;3.15;;;1.20;;
20945;SDS011;10632;51.276;7.116;2023-10-31T02:17:29;3.17;;;1.23;;
20945;SDS011;10632;51.276;7.116;2023-10-31T02:19:56;5.03;;;1.63;;
20945;SDS011;10632;51.276;7.116;2023-10-31T02:22:24;3.10;;;1.40;;
20945;SDS011;10632;51.276;7.116;2023-10-31T02:24:51;3.90;;;1.23;;
20945;SDS011;10632;51.276;7.116;2023-10-31T02:27:18;3.78;;;1.60;;
20945;SDS011;10632;51.276;7.116;2023-10-31T02:29:45;4.50;;;1.58;;
20945;SDS011;10632;51.276;7.116;2023-10-31T02:32:12;6.88;;;1.70;;
20945;SDS011;10632;51.276;7.116;2023-10-31T02:34:39;6.53;;;2.30;;
20945;SDS011;10632;51.276;7.116;2023-10-31T02:37:06;12.57;;;2.17;;
20945;SDS011;10632;51.276;7.116;2023-10-31T02:39:35;7.25;;;2.10;;
20945;SDS011;10632;51.276;7.116;2023-10-31T02:42:03;6.25;;;1.95;;
20945;SDS011;10632;51.276;7.116;2023-10-31T02:44:30;6.90;;;2.20;;
20945;SDS011;10632;51.276;7.116;2023-10-31T02:46:57;7.20;;;2.28;;
20945;SDS011;10632;51.276;7.116;2023-10-31T02:49:24;3.90;;;1.90;;
20945;SDS011;10632;51.276;7.116;2023-10-31T02:51:54;7.43;;;2.42;;
20945;SDS011;10632;51.276;7.116;2023-10-31T02:54:21;7.35;;;2.58;;
20945;SDS011;10632;51.276;7.116;2023-10-31T02:56:49;6.97;;;2.67;;
20945;SDS011;10632;51.276;7.116;2023-10-31T02:59:16;9.13;;;3.33;;
20945;SDS011;10632;51.276;7.116;2023-10-31T03:01:43;12.80;;;2.70;;
20945;SDS011;10632;51.276;7.116;2023-10-31T03:04:09;7.80;;;3.03;;
20945;SDS011;10632;51.276;7.116;2023-10-31T03:06:36;7.25;;;2.70;;
20945;SDS011;10632;51.276;7.116;2023-10-31T03:09:03;11.30;;;3.63;;
20945;SDS011;10632;51.276;7.116;2023-10-31T03:11:30;7.95;;;2.80;;
20945;SDS011;10632;51.276;7.116;2023-10-31T03:13:59;10.95;;;3.38;;
20945;SDS011;10632;51.276;7.116;2023-10-31T03:16:26;10.43;;;3.30;;
20945;SDS011;10632;51.276;7.116;2023-10-31T03:18:53;10.43;;;3.08;;
20945;SDS011;10632;51.276;7.116;2023-10-31T03:21:20;8.27;;;3.03;;
20945;SDS011;10632;51.276;7.116;2023-10-31T03:23:47;8.52;;;2.75;;
20945;SDS011;10632;51.276;7.116;2023-10-31T03:26:15;8.18;;;2.83;;
20945;SDS011;10632;51.276;7.116;2023-10-31T03:28:42;10.82;;;2.95;;
20945;SDS011;10632;51.276;7.116;2023-10-31T03:31:11;7.28;;;2.63;;
20945;SDS011;10632;51.276;7.116;2023-10-31T03:33:38;7.10;;;2.80;;
20945;SDS011;10632;51.276;7.116;2023-10-31T03:36:06;7.45;;;2.35;;
20945;SDS011;10632;51.276;7.116;2023-10-31T03:38:33;9.57;;;2.90;;
20945;SDS011;10632;51.276;7.116;2023-10-31T03:41:00;7.40;;;3.10;;
20945;SDS011;10632;51.276;7.116;2023-10-31T03:43:27;7.00;;;2.28;;
20945;SDS011;10632;51.276;7.116;2023-10-31T03:45:54;7.72;;;2.55;;
20945;SDS011;10632;51.276;7.116;2023-10-31T03:48:23;10.75;;;2.25;;
20945;SDS011;10632;51.276;7.116;2023-10-31T03:50:49;5.60;;;1.77;;
20945;SDS011;10632;51.276;7.116;2023-10-31T03:53:16;8.38;;;2.38;;
20945;SDS011;10632;51.276;7.116;2023-10-31T03:55:43;8.15;;;2.33;;
20945;SDS011;10632;51.276;7.116;2023-10-31T03:58:10;6.78;;;2.10;;
20945;SDS011;10632;51.276;7.116;2023-10-31T04:00:38;5.85;;;2.15;;
20945;SDS011;10632;51.276;7.116;2023-10-31T04:03:11;5.30;;;2.05;;
20945;SDS011;10632;51.276;7.116;2023-10-31T04:05:39;4.18;;;1.90;;
20945;SDS011;10632;51.276;7.116;2023-10-31T04:08:06;8.45;;;1.83;;
20945;SDS011;10632;51.276;7.116;2023-10-31T04:10:33;7.75;;;2.05;;
20945;SDS011;10632;51.276;7.116;2023-10-31T04:13:00;4.47;;;1.45;;
20945;SDS011;10632;51.276;7.116;2023-10-31T04:15:27;5.75;;;2.05;;
20945;SDS011;10632;51.276;7.116;2023-10-31T04:17:54;4.15;;;1.30;;
20945;SDS011;10632;51.276;7.116;2023-10-31T04:20:21;8.35;;;1.95;;
20945;SDS011;10632;51.276;7.116;2023-10-31T04:22:49;5.97;;;1.67;;
20945;SDS011;10632;51.276;7.116;2023-10-31T04:25:16;3.58;;;1.58;;
20945;SDS011;10632;51.276;7.116;2023-10-31T04:27:45;4.40;;;1.40;;
20945;SDS011;10632;51.276;7.116;2023-10-31T04:30:12;3.95;;;1.58;;
20945;SDS011;10632;51.276;7.116;2023-10-31T04:32:39;3.92;;;1.42;;
20945;SDS011;10632;51.276;7.116;2023-10-31T04:35:06;3.75;;;1.30;;
20945;SDS011;10632;51.276;7.116;2023-10-31T04:37:33;4.20;;;1.42;;
20945;SDS011;10632;51.276;7.116;2023-10-31T04:40:02;4.85;;;1.60;;
20945;SDS011;10632;51.276;7.116;2023-10-31T04:42:31;11.20;;;1.80;;
20945;SDS011;10632;51.276;7.116;2023-10-31T04:44:58;4.03;;;1.38;;
20945;SDS011;10632;51.276;7.116;2023-10-31T04:47:25;3.35;;;1.20;;
20945;SDS011;10632;51.276;7.116;2023-10-31T04:49:52;2.95;;;1.42;;
20945;SDS011;10632;51.276;7.116;2023-10-31T04:52:19;8.07;;;1.58;;
20945;SDS011;10632;51.276;7.116;2023-10-31T04:54:47;3.30;;;1.48;;
20945;SDS011;10632;51.276;7.116;2023-10-31T04:57:16;5.10;;;1.60;;
20945;SDS011;10632;51.276;7.116;2023-10-31T04:59:43;4.20;;;1.55;;
20945;SDS011;10632;51.276;7.116;2023-10-31T05:02:09;4.75;;;1.70;;
20945;SDS011;10632;51.276;7.116;2023-10-31T05:04:37;4.10;;;1.60;;
20945;SDS011;10632;51.276;7.116;2023-10-31T05:09:40;6.07;;;1.60;;
20945;SDS011;10632;51.276;7.116;2023-10-31T05:12:10;3.80;;;1.35;;
20945;SDS011;10632;51.276;7.116;2023-10-31T05:14:39;3.70;;;1.65;;
20945;SDS011;10632;51.276;7.116;2023-10-31T05:17:09;4.32;;;1.42;;
20945;SDS011;10632;51.276;7.116;2023-10-31T05:19:38;4.25;;;1.60;;
20945;SDS011;10632;51.276;7.116;2023-10-31T05:22:05;4.25;;;1.60;;
20945;SDS011;10632;51.276;7.116;2023-10-31T05:24:35;3.55;;;1.52;;
20945;SDS011;10632;51.276;7.116;2023-10-31T05:27:03;3.95;;;1.58;;
20945;SDS011;10632;51.276;7.116;2023-10-31T05:29:30;4.10;;;1.67;;
20945;SDS011;10632;51.276;7.116;2023-10-31T05:31:58;7.43;;;2.17;;
20945;SDS011;10632;51.276;7.116;2023-10-31T05:34:26;4.47;;;1.60;;
20945;SDS011;10632;51.276;7.116;2023-10-31T05:36:53;3.88;;;1.58;;
20945;SDS011;10632;51.276;7.116;2023-10-31T05:39:20;4.72;;;1.65;;
20945;SDS011;10632;51.276;7.116;2023-10-31T05:41:47;3.85;;;1.77;;
20945;SDS011;10632;51.276;7.116;2023-10-31T05:44:14;4.18;;;1.90;;
20945;SDS011;10632;51.276;7.116;2023-10-31T05:46:41;6.95;;;2.22;;
20945;SDS011;10632;51.276;7.116;2023-10-31T05:49:09;4.57;;;1.88;;
20945;SDS011;10632;51.276;7.116;2023-10-31T05:51:36;4.95;;;2.00;;
20945;SDS011;10632;51.276;7.116;2023-10-31T05:54:03;4.03;;;1.75;;
20945;SDS011;10632;51.276;7.116;2023-10-31T05:56:32;4.20;;;2.00;;
20945;SDS011;10632;51.276;7.116;2023-10-31T05:58:59;4.40;;;1.80;;
20945;SDS011;10632;51.276;7.116;2023-10-31T06:01:26;6.13;;;1.98;;
20945;SDS011;10632;51.276;7.116;2023-10-31T06:03:54;4.22;;;1.80;;
20945;SDS011;10632;51.276;7.116;2023-10-31T06:06:22;4.72;;;2.22;;
20945;SDS011;10632;51.276;7.116;2023-10-31T06:08:49;7.93;;;1.85;;
20945;SDS011;10632;51.276;7.116;2023-10-31T06:11:16;5.22;;;2.13;;
20945;SDS011;10632;51.276;7.116;2023-10-31T06:13:44;6.75;;;2.45;;
20945;SDS011;10632;51.276;7.116;2023-10-31T06:16:12;6.10;;;2.20;;
20945;SDS011;10632;51.276;7.116;2023-10-31T06:18:39;5.00;;;2.08;;
20945;SDS011;10632;51.276;7.116;2023-10-31T06:21:06;6.13;;;2.17;;
20945;SDS011;10632;51.276;7.116;2023-10-31T06:23:36;4.90;;;1.80;;
20945;SDS011;10632;51.276;7.116;2023-10-31T06:26:03;5.13;;;1.88;;
20945;SDS011;10632;51.276;7.116;2023-10-31T06:28:31;3.38;;;1.65;;
20945;SDS011;10632;51.276;7.116;2023-10-31T06:30:59;3.78;;;1.67;;
20945;SDS011;10632;51.276;7.116;2023-10-31T06:33:27;4.22;;;1.65;;
20945;SDS011;10632;51.276;7.116;2023-10-31T06:35:54;3.92;;;1.70;;
20945;SDS011;10632;51.276;7.116;2023-10-31T06:38:21;5.07;;;1.80;;
20945;SDS011;10632;51.276;7.116;2023-10-31T06:40:50;3.25;;;1.35;;
20945;SDS011;10632;51.276;7.116;2023-10-31T06:43:17;3.47;;;1.85;;
20945;SDS011;10632;51.276;7.116;2023-10-31T06:45:44;4.18;;;1.50;;
20945;SDS011;10632;51.276;7.116;2023-10-31T06:48:11;4.20;;;1.85;;
20945;SDS011;10632;51.276;7.116;2023-10-31T06:50:38;3.83;;;1.40;;
20945;SDS011;10632;51.276;7.116;2023-10-31T06:53:05;4.95;;;1.73;;
20945;SDS011;10632;51.276;7.116;2023-10-31T06:55:32;3.72;;;1.60;;
20945;SDS011;10632;51.276;7.116;2023-10-31T06:58:00;5.07;;;1.42;;
20945;SDS011;10632;51.276;7.116;2023-10-31T07:00:27;7.13;;;2.30;;
20945;SDS011;10632;51.276;7.116;2023-10-31T07:02:55;5.68;;;2.00;;
20945;SDS011;10632;51.276;7.116;2023-10-31T07:05:23;5.22;;;2.17;;
20945;SDS011;10632;51.276;7.116;2023-10-31T07:07:50;4.63;;;2.22;;
20945;SDS011;10632;51.276;7.116;2023-10-31T07:10:17;4.03;;;1.70;;
20945;SDS011;10632;51.276;7.116;2023-10-31T07:12:44;6.10;;;2.28;;
20945;SDS011;10632;51.276;7.116;2023-10-31T07:15:15;6.40;;;2.35;;
20945;SDS011;10632;51.276;7.116;2023-10-31T07:17:43;7.30;;;2.33;;
20945;SDS011;10632;51.276;7.116;2023-10-31T07:20:10;6.38;;;2.25;;
20945;SDS011;10632;51.276;7.116;2023-10-31T07:22:37;6.65;;;2.38;;
20945;SDS011;10632;51.276;7.116;2023-10-31T07:25:05;21.42;;;2.42;;
20945;SDS011;10632;51.276;7.116;2023-10-31T07:27:32;6.78;;;2.08;;
20945;SDS011;10632;51.276;7.116;2023-10-31T07:29:59;6.25;;;1.73;;
20945;SDS011;10632;51.276;7.116;2023-10-31T07:32:30;6.32;;;2.25;;
20945;SDS011;10632;51.276;7.116;2023-10-31T07:34:58;5.65;;;2.47;;
20945;SDS011;10632;51.276;7.116;2023-10-31T07:37:27;9.73;;;3.10;;
20945;SDS011;10632;51.276;7.116;2023-10-31T07:39:54;10.93;;;3.08;;
20945;SDS011;10632;51.276;7.116;2023-10-31T07:42:21;7.72;;;2.70;;
20945;SDS011;10632;51.276;7.116;2023-10-31T07:44:48;10.10;;;3.42;;
20945;SDS011;10632;51.276;7.116;2023-10-31T07:47:16;7.32;;;3.45;;
20945;SDS011;10632;51.276;7.116;2023-10-31T07:49:44;6.78;;;2.35;;
20945;SDS011;10632;51.276;7.116;2023-10-31T07:52:11;6.68;;;2.42;;
20945;SDS011;10632;51.276;7.116;2023-10-31T07:54:39;7.90;;;2.90;;
20945;SDS011;10632;51.276;7.116;2023-10-31T07:57:06;6.75;;;2.80;;
20945;SDS011;10632;51.276;7.116;2023-10-31T07:59:34;8.20;;;2.92;;
20945;SDS011;10632;51.276;7.116;2023-10-31T08:02:01;5.93;;;2.80;;
20945;SDS011;10632;51.276;7.116;2023-10-31T08:04:28;6.93;;;2.58;;
20945;SDS011;10632;51.276;7.116;2023-10-31T08:06:57;6.13;;;2.70;;
20945;SDS011;10632;51.276;7.116;2023-10-31T08:09:24;11.77;;;3.20;;
20945;SDS011;10632;51.276;7.116;2023-10-31T08:11:51;11.10;;;2.65;;
20945;SDS011;10632;51.276;7.116;2023-10-31T08:14:18;9.82;;;2.83;;
20945;SDS011;10632;51.276;7.116;2023-10-31T08:16:50;10.50;;;3.25;;
20945;SDS011;10632;51.276;7.116;2023-10-31T08:19:17;12.48;;;3.00;;
20945;SDS011;10632;51.276;7.116;2023-10-31T08:21:44;6.50;;;2.65;;
20945;SDS011;10632;51.276;7.116;2023-10-31T08:24:12;8.75;;;2.92;;
20945;SDS011;10632;51.276;7.116;2023-10-31T08:26:39;9.20;;;2.97;;
20945;SDS011;10632;51.276;7.116;2023-10-31T08:29:06;7.68;;;2.72;;
20945;SDS011;10632;51.276;7.116;2023-10-31T08:31:33;6.75;;;2.60;;
20945;SDS011;10632;51.276;7.116;2023-10-31T08:34:03;6.03;;;2.17;;
20945;SDS011;10632;51.276;7.116;2023-10-31T08:36:33;7.38;;;2.80;;
20945;SDS011;10632;51.276;7.116;2023-10-31T08:39:00;6.50;;;2.42;;
20945;SDS011;10632;51.276;7.116;2023-10-31T08:41:28;4.97;;;2.05;;
20945;SDS011;10632;51.276;7.116;2023-10-31T08:43:55;7.47;;;2.50;;
20945;SDS011;10632;51.276;7.116;2023-10-31T08:46:23;11.88;;;2.60;;
20945;SDS011;10632;51.276;7.116;2023-10-31T08:48:53;7.07;;;2.50;;
20945;SDS011;10632;51.276;7.116;2023-10-31T08:51:20;7.00;;;2.70;;
20945;SDS011;10632;51.276;7.116;2023-10-31T08:53:48;7.40;;;2.45;;
20945;SDS011;10632;51.276;7.116;2023-10-31T08:56:15;4.82;;;2.17;;
20945;SDS011;10632;51.276;7.116;2023-10-31T08:58:43;5.57;;;1.95;;
20945;SDS011;10632;51.276;7.116;2023-10-31T09:01:10;7.47;;;2.53;;
20945;SDS011;10632;51.276;7.116;2023-10-31T09:03:37;5.88;;;2.20;;
20945;SDS011;10632;51.276;7.116;2023-10-31T09:06:04;8.55;;;2.97;;
20945;SDS011;10632;51.276;7.116;2023-10-31T09:08:31;5.68;;;2.53;;
20945;SDS011;10632;51.276;7.116;2023-10-31T09:10:59;7.32;;;2.55;;
20945;SDS011;10632;51.276;7.116;2023-10-31T09:13:27;9.52;;;2.53;;
20945;SDS011;10632;51.276;7.116;2023-10-31T09:15:55;7.85;;;2.13;;
20945;SDS011;10632;51.276;7.116;2023-10-31T09:18:23;8.52;;;2.08;;
20945;SDS011;10632;51.276;7.116;2023-10-31T09:20:50;5.00;;;2.15;;
20945;SDS011;10632;51.276;7.116;2023-10-31T09:23:18;6.88;;;2.53;;
20945;SDS011;10632;51.276;7.116;2023-10-31T09:25:46;5.75;;;2.25;;
20945;SDS011;10632;51.276;7.116;2023-10-31T09:28:13;6.15;;;2.38;;
20945;SDS011;10632;51.276;7.116;2023-10-31T09:30:40;5.85;;;2.08;;
20945;SDS011;10632;51.276;7.116;2023-10-31T09:33:09;7.30;;;2.65;;
20945;SDS011;10632;51.276;7.116;2023-10-31T09:35:36;6.30;;;2.45;;
20945;SDS011;10632;51.276;7.116;2023-10-31T09:38:03;5.38;;;2.15;;
20945;SDS011;10632;51.276;7.116;2023-10-31T09:40:30;4.85;;;2.15;;
20945;SDS011;10632;51.276;7.116;2023-10-31T09:42:57;8.38;;;2.92;;
20945;SDS011;10632;51.276;7.116;2023-10-31T09:45:24;5.43;;;2.22;;
20945;SDS011;10632;51.276;7.116;2023-10-31T09:47:51;5.63;;;2.60;;
20945;SDS011;10632;51.276;7.116;2023-10-31T09:50:20;7.40;;;2.55;;
20945;SDS011;10632;51.276;7.116;2023-10-31T09:52:47;5.30;;;2.03;;
20945;SDS011;10632;51.276;7.116;2023-10-31T09:55:14;6.97;;;2.33;;
20945;SDS011;10632;51.276;7.116;2023-10-31T09:57:42;7.50;;;2.33;;
20945;SDS011;10632;51.276;7.116;2023-10-31T10:00:09;7.97;;;2.95;;
20945;SDS011;10632;51.276;7.116;2023-10-31T10:02:36;6.72;;;2.03;;
20945;SDS011;10632;51.276;7.116;2023-10-31T10:05:04;12.85;;;2.22;;
20945;SDS011;10632;51.276;7.116;2023-10-31T10:07:34;6.88;;;1.98;;
20945;SDS011;10632;51.276;7.116;2023-10-31T10:10:01;5.68;;;2.10;;
20945;SDS011;10632;51.276;7.116;2023-10-31T10:12:28;7.18;;;2.30;;
20945;SDS011;10632;51.276;7.116;2023-10-31T10:14:56;8.45;;;2.55;;
20945;SDS011;10632;51.276;7.116;2023-10-31T10:17:24;7.32;;;2.03;;
20945;SDS011;10632;51.276;7.116;2023-10-31T10:20:02;6.32;;;2.20;;
20945;SDS011;10632;51.276;7.116;2023-10-31T10:22:34;5.93;;;2.30;;
20945;SDS011;10632;51.276;7.116;2023-10-31T10:25:04;6.70;;;2.03;;
20945;SDS011;10632;51.276;7.116;2023-10-31T10:27:32;7.10;;;2.38;;
20945;SDS011;10632;51.276;7.116;2023-10-31T10:29:59;11.27;;;2.78;;
20945;SDS011;10632;51.276;7.116;2023-10-31T10:32:26;9.65;;;2.63;;
20945;SDS011;10632;51.276;7.116;2023-10-31T10:34:53;5.60;;;2.38;;
20945;SDS011;10632;51.276;7.116;2023-10-31T10:37:21;5.93;;;2.03;;
20945;SDS011;10632;51.276;7.116;2023-10-31T10:39:51;9.57;;;2.08;;
20945;SDS011;10632;51.276;7.116;2023-10-31T10:42:21;5.18;;;1.88;;
20945;SDS011;10632;51.276;7.116;2023-10-31T10:44:54;4.70;;;1.98;;
20945;SDS011;10632;51.276;7.116;2023-10-31T10:47:29;4.13;;;1.70;;
20945;SDS011;10632;51.276;7.116;2023-10-31T10:49:58;5.57;;;1.60;;
20945;SDS011;10632;51.276;7.116;2023-10-31T10:52:30;2.97;;;1.50;;
20945;SDS011;10632;51.276;7.116;2023-10-31T10:55:08;3.10;;;1.45;;
20945;SDS011;10632;51.276;7.116;2023-10-31T10:57:42;5.95;;;1.58;;
20945;SDS011;10632;51.276;7.116;2023-10-31T11:00:14;3.90;;;1.45;;
20945;SDS011;10632;51.276;7.116;2023-10-31T11:02:42;4.75;;;1.35;;
20945;SDS011;10632;51.276;7.116;2023-10-31T11:05:10;3.40;;;1.50;;
20945;SDS011;10632;51.276;7.116;2023-10-31T11:07:39;5.22;;;1.17;;
20945;SDS011;10632;51.276;7.116;2023-10-31T11:10:09;4.57;;;1.63;;
20945;SDS011;10632;51.276;7.116;2023-10-31T11:12:37;10.10;;;1.42;;
20945;SDS011;10632;51.276;7.116;2023-10-31T11:15:05;7.80;;;1.42;;
20945;SDS011;10632;51.276;7.116;2023-10-31T11:17:33;8.25;;;1.67;;
20945;SDS011;10632;51.276;7.116;2023-10-31T11:20:03;3.80;;;1.20;;
20945;SDS011;10632;51.276;7.116;2023-10-31T11:22:37;3.28;;;1.20;;
20945;SDS011;10632;51.276;7.116;2023-10-31T11:25:06;4.15;;;1.60;;
20945;SDS011;10632;51.276;7.116;2023-10-31T11:27:35;5.10;;;1.85;;
20945;SDS011;10632;51.276;7.116;2023-10-31T11:30:04;4.40;;;1.63;;
20945;SDS011;10632;51.276;7.116;2023-10-31T11:32:32;4.22;;;1.33;;
20945;SDS011;10632;51.276;7.116;2023-10-31T11:34:59;2.60;;;1.25;;
20945;SDS011;10632;51.276;7.116;2023-10-31T11:37:31;9.40;;;1.45;;
20945;SDS011;10632;51.276;7.116;2023-10-31T11:40:16;3.03;;;1.17;;
20945;SDS011;10632;51.276;7.116;2023-10-31T11:42:50;3.33;;;1.67;;
20945;SDS011;10632;51.276;7.116;2023-10-31T11:45:26;7.05;;;1.42;;
20945;SDS011;10632;51.276;7.116;2023-10-31T11:47:53;5.70;;;1.80;;
20945;SDS011;10632;51.276;7.116;2023-10-31T11:50:21;10.60;;;1.15;;
20945;SDS011;10632;51.276;7.116;2023-10-31T11:52:58;4.75;;;1.10;;
20945;SDS011;10632;51.276;7.116;2023-10-31T11:55:30;2.53;;;1.10;;
20945;SDS011;10632;51.276;7.116;2023-10-31T11:58:00;2.38;;;0.90;;
20945;SDS011;10632;51.276;7.116;2023-10-31T12:00:41;2.92;;;1.10;;
20945;SDS011;10632;51.276;7.116;2023-10-31T12:03:15;3.20;;;1.13;;
20945;SDS011;10632;51.276;7.116;2023-10-31T12:05:53;1.77;;;0.90;;
20945;SDS011;10632;51.276;7.116;2023-10-31T12:08:27;3.15;;;0.90;;
20945;SDS011;10632;51.276;7.116;2023-10-31T12:11:02;3.38;;;1.15;;
20945;SDS011;10632;51.276;7.116;2023-10-31T12:13:35;2.35;;;0.93;;
20945;SDS011;10632;51.276;7.116;2023-10-31T12:16:04;3.40;;;0.90;;
20945;SDS011;10632;51.276;7.116;2023-10-31T12:18:33;4.45;;;0.80;;
20945;SDS011;10632;51.276;7.116;2023-10-31T12:21:00;3.85;;;1.30;;
20945;SDS011;10632;51.276;7.116;2023-10-31T12:23:27;2.67;;;1.10;;
20945;SDS011;10632;51.276;7.116;2023-10-31T12:25:54;2.40;;;1.10;;
20945;SDS011;10632;51.276;7.116;2023-10-31T12:28:23;2.55;;;1.17;;
20945;SDS011;10632;51.276;7.116;2023-10-31T12:30:53;3.33;;;1.10;;
20945;SDS011;10632;51.276;7.116;2023-10-31T12:33:22;3.65;;;1.10;;
20945;SDS011;10632;51.276;7.116;2023-10-31T12:35:51;2.90;;;1.15;;
20945;SDS011;10632;51.276;7.116;2023-10-31T12:38:22;1.95;;;0.90;;
20945;SDS011;10632;51.276;7.116;2023-10-31T12:40:49;2.70;;;1.00;;
20945;SDS011;10632;51.276;7.116;2023-10-31T12:43:18;2.22;;;0.90;;
20945;SDS011;10632;51.276;7.116;2023-10-31T12:45:45;3.15;;;1.10;;
20945;SDS011;10632;51.276;7.116;2023-10-31T12:48:13;2.78;;;1.02;;
20945;SDS011;10632;51.276;7.116;2023-10-31T12:50:40;4.40;;;1.00;;
20945;SDS011;10632;51.276;7.116;2023-10-31T12:53:07;2.15;;;1.10;;
20945;SDS011;10632;51.276;7.116;2023-10-31T12:55:40;3.22;;;1.08;;
20945;SDS011;10632;51.276;7.116;2023-10-31T12:58:11;3.85;;;1.35;;
20945;SDS011;10632;51.276;7.116;2023-10-31T13:00:46;2.47;;;1.00;;
20945;SDS011;10632;51.276;7.116;2023-10-31T13:03:15;3.47;;;1.30;;
20945;SDS011;10632;51.276;7.116;2023-10-31T13:05:42;2.38;;;0.90;;
20945;SDS011;10632;51.276;7.116;2023-10-31T13:08:13;3.30;;;1.20;;
20945;SDS011;10632;51.276;7.116;2023-10-31T13:10:41;3.95;;;1.05;;
20945;SDS011;10632;51.276;7.116;2023-10-31T13:13:09;2.03;;;0.80;;
20945;SDS011;10632;51.276;7.116;2023-10-31T13:15:37;2.83;;;1.10;;
20945;SDS011;10632;51.276;7.116;2023-10-31T13:18:04;6.93;;;0.80;;
20945;SDS011;10632;51.276;7.116;2023-10-31T13:20:32;2.88;;;1.10;;
20945;SDS011;10632;51.276;7.116;2023-10-31T13:22:59;4.03;;;0.90;;
20945;SDS011;10632;51.276;7.116;2023-10-31T13:25:28;4.68;;;1.30;;
20945;SDS011;10632;51.276;7.116;2023-10-31T13:27:56;4.78;;;1.27;;
20945;SDS011;10632;51.276;7.116;2023-10-31T13:30:23;2.95;;;1.20;;
20945;SDS011;10632;51.276;7.116;2023-10-31T13:32:50;3.13;;;0.90;;
20945;SDS011;10632;51.276;7.116;2023-10-31T13:35:17;4.15;;;1.20;;
20945;SDS011;10632;51.276;7.116;2023-10-31T13:37:46;3.50;;;1.30;;
20945;SDS011;10632;51.276;7.116;2023-10-31T13:40:13;3.83;;;1.20;;
20945;SDS011;10632;51.276;7.116;2023-10-31T13:42:40;8.25;;;1.30;;
20945;SDS011;10632;51.276;7.116;2023-10-31T13:45:07;4.03;;;1.20;;
20945;SDS011;10632;51.276;7.116;2023-10-31T13:47:35;3.78;;;1.25;;
20945;SDS011;10632;51.276;7.116;2023-10-31T13:50:03;9.32;;;1.20;;
20945;SDS011;10632;51.276;7.116;2023-10-31T13:52:30;4.22;;;1.00;;
20945;SDS011;10632;51.276;7.116;2023-10-31T13:54:59;2.53;;;0.88;;
20945;SDS011;10632;51.276;7.116;2023-10-31T13:57:26;3.10;;;1.08;;
20945;SDS011;10632;51.276;7.116;2023-10-31T13:59:53;2.60;;;1.10;;
20945;SDS011;10632;51.276;7.116;2023-10-31T14:02:20;3.85;;;1.20;;
20945;SDS011;10632;51.276;7.116;2023-10-31T14:04:47;2.67;;;0.90;;
20945;SDS011;10632;51.276;7.116;2023-10-31T14:07:18;8.10;;;0.90;;
20945;SDS011;10632;51.276;7.116;2023-10-31T14:09:49;1.80;;;0.77;;
20945;SDS011;10632;51.276;7.116;2023-10-31T14:12:17;3.20;;;0.98;;
20945;SDS011;10632;51.276;7.116;2023-10-31T14:14:44;4.40;;;1.00;;
20945;SDS011;10632;51.276;7.116;2023-10-31T14:17:13;4.20;;;0.90;;
20945;SDS011;10632;51.276;7.116;2023-10-31T14:19:41;1.85;;;0.80;;
20945;SDS011;10632;51.276;7.116;2023-10-31T14:22:08;3.20;;;1.00;;
20945;SDS011;10632;51.276;7.116;2023-10-31T14:24:37;1.20;;;0.68;;
20945;SDS011;10632;51.276;7.116;2023-10-31T14:27:04;2.25;;;0.90;;
20945;SDS011;10632;51.276;7.116;2023-10-31T14:29:33;2.65;;;1.08;;
20945;SDS011;10632;51.276;7.116;2023-10-31T14:32:07;2.10;;;0.70;;
20945;SDS011;10632;51.276;7.116;2023-10-31T14:34:34;1.77;;;0.70;;
20945;SDS011;10632;51.276;7.116;2023-10-31T14:37:01;2.70;;;0.75;;
20945;SDS011;10632;51.276;7.116;2023-10-31T14:39:28;1.65;;;0.60;;
20945;SDS011;10632;51.276;7.116;2023-10-31T14:41:55;2.35;;;0.77;;
20945;SDS011;10632;51.276;7.116;2023-10-31T14:44:22;0.88;;;0.57;;
20945;SDS011;10632;51.276;7.116;2023-10-31T14:46:51;2.97;;;0.80;;
20945;SDS011;10632;51.276;7.116;2023-10-31T14:49:19;2.47;;;0.60;;
20945;SDS011;10632;51.276;7.116;2023-10-31T14:51:45;1.23;;;0.70;;
20945;SDS011;10632;51.276;7.116;2023-10-31T14:54:12;2.63;;;0.75;;
20945;SDS011;10632;51.276;7.116;2023-10-31T14:56:39;2.97;;;0.95;;